sensor_id;sensor_type;location;lat;lon;timestamp;P1;durP1;ratioP1;P2;durP2;ratioP2
18082;SDS011;9168;51.194;6.840;2023-03-20T00:01:51;21.38;;;11.85;;
18082;SDS011;9168;51.194;6.840;2023-03-20T00:04:18;20.30;;;10.85;;
18082;SDS011;9168;51.194;6.840;2023-03-20T00:06:45;23.08;;;11.32;;
18082;SDS011;9168;51.194;6.840;2023-03-20T00:09:12;20.73;;;11.18;;
18082;SDS011;9168;51.194;6.840;2023-03-20T00:11:40;19.83;;;11.73;;
18082;SDS011;9168;51.194;6.840;2023-03-20T00:14:13;19.83;;;12.13;;
18082;SDS011;9168;51.194;6.840;2023-03-20T00:16:44;19.90;;;11.73;;
18082;SDS011;9168;51.194;6.840;2023-03-20T00:19:13;21.58;;;12.30;;
18082;SDS011;9168;51.194;6.840;2023-03-20T00:21:42;22.40;;;11.90;;
18082;SDS011;9168;51.194;6.840;2023-03-20T00:24:10;19.77;;;11.30;;
18082;SDS011;9168;51.194;6.840;2023-03-20T00:26:37;18.75;;;11.15;;
18082;SDS011;9168;51.194;6.840;2023-03-20T00:29:04;23.30;;;11.48;;
18082;SDS011;9168;51.194;6.840;2023-03-20T00:31:34;20.23;;;11.52;;
18082;SDS011;9168;51.194;6.840;2023-03-20T00:34:03;18.88;;;10.73;;
18082;SDS011;9168;51.194;6.840;2023-03-20T00:36:32;18.92;;;10.73;;
18082;SDS011;9168;51.194;6.840;2023-03-20T00:38:59;18.60;;;9.85;;
18082;SDS011;9168;51.194;6.840;2023-03-20T00:41:27;17.55;;;9.57;;
18082;SDS011;9168;51.194;6.840;2023-03-20T00:43:58;17.10;;;9.60;;
18082;SDS011;9168;51.194;6.840;2023-03-20T00:46:27;20.13;;;9.70;;
18082;SDS011;9168;51.194;6.840;2023-03-20T00:48:58;16.98;;;9.05;;
18082;SDS011;9168;51.194;6.840;2023-03-20T00:51:25;17.27;;;9.60;;
18082;SDS011;9168;51.194;6.840;2023-03-20T00:53:52;17.00;;;9.80;;
18082;SDS011;9168;51.194;6.840;2023-03-20T00:56:32;15.85;;;9.93;;
18082;SDS011;9168;51.194;6.840;2023-03-20T00:59:05;16.92;;;9.52;;
18082;SDS011;9168;51.194;6.840;2023-03-20T01:01:34;15.85;;;8.98;;
18082;SDS011;9168;51.194;6.840;2023-03-20T01:04:05;16.65;;;9.80;;
18082;SDS011;9168;51.194;6.840;2023-03-20T01:06:37;19.60;;;10.23;;
18082;SDS011;9168;51.194;6.840;2023-03-20T01:09:03;18.92;;;10.32;;
18082;SDS011;9168;51.194;6.840;2023-03-20T01:11:30;15.40;;;9.75;;
18082;SDS011;9168;51.194;6.840;2023-03-20T01:13:58;18.77;;;10.32;;
18082;SDS011;9168;51.194;6.840;2023-03-20T01:16:25;21.75;;;10.27;;
18082;SDS011;9168;51.194;6.840;2023-03-20T01:18:52;22.25;;;11.32;;
18082;SDS011;9168;51.194;6.840;2023-03-20T01:21:21;20.17;;;11.25;;
18082;SDS011;9168;51.194;6.840;2023-03-20T01:23:48;20.05;;;11.32;;
18082;SDS011;9168;51.194;6.840;2023-03-20T01:26:20;20.23;;;10.90;;
18082;SDS011;9168;51.194;6.840;2023-03-20T01:28:49;19.63;;;10.73;;
18082;SDS011;9168;51.194;6.840;2023-03-20T01:31:17;19.02;;;11.77;;
18082;SDS011;9168;51.194;6.840;2023-03-20T01:33:44;17.58;;;10.82;;
18082;SDS011;9168;51.194;6.840;2023-03-20T01:36:11;24.23;;;11.77;;
18082;SDS011;9168;51.194;6.840;2023-03-20T01:38:40;21.60;;;11.32;;
18082;SDS011;9168;51.194;6.840;2023-03-20T01:41:08;21.15;;;11.68;;
18082;SDS011;9168;51.194;6.840;2023-03-20T01:43:38;26.20;;;12.60;;
18082;SDS011;9168;51.194;6.840;2023-03-20T01:46:13;25.00;;;13.65;;
18082;SDS011;9168;51.194;6.840;2023-03-20T01:48:55;19.65;;;12.52;;
18082;SDS011;9168;51.194;6.840;2023-03-20T01:51:30;20.73;;;12.13;;
18082;SDS011;9168;51.194;6.840;2023-03-20T01:54:02;25.95;;;12.50;;
18082;SDS011;9168;51.194;6.840;2023-03-20T01:56:33;21.80;;;12.05;;
18082;SDS011;9168;51.194;6.840;2023-03-20T01:59:04;23.98;;;12.13;;
18082;SDS011;9168;51.194;6.840;2023-03-20T02:01:35;24.33;;;11.95;;
18082;SDS011;9168;51.194;6.840;2023-03-20T02:04:02;21.38;;;11.85;;
18082;SDS011;9168;51.194;6.840;2023-03-20T02:06:30;21.83;;;12.18;;
18082;SDS011;9168;51.194;6.840;2023-03-20T02:08:58;24.33;;;13.35;;
18082;SDS011;9168;51.194;6.840;2023-03-20T02:11:26;23.45;;;13.45;;
18082;SDS011;9168;51.194;6.840;2023-03-20T02:13:56;23.70;;;11.85;;
18082;SDS011;9168;51.194;6.840;2023-03-20T02:16:25;26.38;;;12.15;;
18082;SDS011;9168;51.194;6.840;2023-03-20T02:18:52;22.65;;;13.25;;
18082;SDS011;9168;51.194;6.840;2023-03-20T02:24:40;26.48;;;13.00;;
18082;SDS011;9168;51.194;6.840;2023-03-20T02:27:23;21.55;;;12.63;;
18082;SDS011;9168;51.194;6.840;2023-03-20T02:30:02;22.45;;;12.63;;
18082;SDS011;9168;51.194;6.840;2023-03-20T02:36:00;21.42;;;12.13;;
18082;SDS011;9168;51.194;6.840;2023-03-20T02:38:56;22.70;;;12.70;;
18082;SDS011;9168;51.194;6.840;2023-03-20T02:41:32;23.77;;;13.10;;
18082;SDS011;9168;51.194;6.840;2023-03-20T02:44:04;22.80;;;13.48;;
18082;SDS011;9168;51.194;6.840;2023-03-20T02:46:38;21.77;;;12.32;;
18082;SDS011;9168;51.194;6.840;2023-03-20T02:49:15;25.30;;;13.25;;
18082;SDS011;9168;51.194;6.840;2023-03-20T02:51:47;21.92;;;12.75;;
18082;SDS011;9168;51.194;6.840;2023-03-20T02:54:23;26.65;;;13.43;;
18082;SDS011;9168;51.194;6.840;2023-03-20T02:56:56;24.52;;;13.73;;
18082;SDS011;9168;51.194;6.840;2023-03-20T02:59:29;26.98;;;13.50;;
18082;SDS011;9168;51.194;6.840;2023-03-20T03:02:02;25.77;;;13.18;;
18082;SDS011;9168;51.194;6.840;2023-03-20T03:04:33;24.58;;;12.85;;
18082;SDS011;9168;51.194;6.840;2023-03-20T03:07:03;25.70;;;14.13;;
18082;SDS011;9168;51.194;6.840;2023-03-20T03:09:34;30.25;;;13.93;;
18082;SDS011;9168;51.194;6.840;2023-03-20T03:12:06;25.13;;;13.15;;
18082;SDS011;9168;51.194;6.840;2023-03-20T03:14:38;23.75;;;12.32;;
18082;SDS011;9168;51.194;6.840;2023-03-20T03:17:09;25.75;;;13.35;;
18082;SDS011;9168;51.194;6.840;2023-03-20T03:19:38;24.77;;;13.20;;
18082;SDS011;9168;51.194;6.840;2023-03-20T03:22:08;24.50;;;13.80;;
18082;SDS011;9168;51.194;6.840;2023-03-20T03:24:38;27.65;;;14.40;;
18082;SDS011;9168;51.194;6.840;2023-03-20T03:27:12;25.50;;;14.00;;
18082;SDS011;9168;51.194;6.840;2023-03-20T03:29:42;29.02;;;13.95;;
18082;SDS011;9168;51.194;6.840;2023-03-20T03:32:27;29.67;;;15.05;;
18082;SDS011;9168;51.194;6.840;2023-03-20T03:34:57;24.27;;;14.25;;
18082;SDS011;9168;51.194;6.840;2023-03-20T03:37:38;22.58;;;12.23;;
18082;SDS011;9168;51.194;6.840;2023-03-20T03:40:12;25.48;;;14.40;;
18082;SDS011;9168;51.194;6.840;2023-03-20T03:42:47;26.33;;;14.30;;
18082;SDS011;9168;51.194;6.840;2023-03-20T03:45:21;24.20;;;13.73;;
18082;SDS011;9168;51.194;6.840;2023-03-20T03:47:55;28.45;;;13.38;;
18082;SDS011;9168;51.194;6.840;2023-03-20T03:50:27;27.35;;;14.52;;
18082;SDS011;9168;51.194;6.840;2023-03-20T03:52:57;23.95;;;13.48;;
18082;SDS011;9168;51.194;6.840;2023-03-20T03:55:30;30.45;;;13.98;;
18082;SDS011;9168;51.194;6.840;2023-03-20T03:58:02;28.88;;;13.27;;
18082;SDS011;9168;51.194;6.840;2023-03-20T04:00:32;26.38;;;13.65;;
18082;SDS011;9168;51.194;6.840;2023-03-20T04:03:00;27.95;;;15.18;;
18082;SDS011;9168;51.194;6.840;2023-03-20T04:05:30;28.35;;;13.95;;
18082;SDS011;9168;51.194;6.840;2023-03-20T04:08:01;26.08;;;14.13;;
18082;SDS011;9168;51.194;6.840;2023-03-20T04:10:31;33.65;;;15.70;;
18082;SDS011;9168;51.194;6.840;2023-03-20T04:12:58;27.52;;;14.93;;
18082;SDS011;9168;51.194;6.840;2023-03-20T04:15:25;28.38;;;15.35;;
18082;SDS011;9168;51.194;6.840;2023-03-20T04:17:53;29.60;;;15.98;;
18082;SDS011;9168;51.194;6.840;2023-03-20T04:20:20;27.55;;;14.57;;
18082;SDS011;9168;51.194;6.840;2023-03-20T04:22:46;25.73;;;14.00;;
18082;SDS011;9168;51.194;6.840;2023-03-20T04:25:14;30.52;;;15.55;;
18082;SDS011;9168;51.194;6.840;2023-03-20T04:27:44;27.38;;;13.77;;
18082;SDS011;9168;51.194;6.840;2023-03-20T04:30:11;26.48;;;13.65;;
18082;SDS011;9168;51.194;6.840;2023-03-20T04:32:38;25.35;;;13.82;;
18082;SDS011;9168;51.194;6.840;2023-03-20T04:35:05;28.70;;;13.98;;
18082;SDS011;9168;51.194;6.840;2023-03-20T04:37:33;25.65;;;14.38;;
18082;SDS011;9168;51.194;6.840;2023-03-20T04:40:00;25.67;;;14.15;;
18082;SDS011;9168;51.194;6.840;2023-03-20T04:42:28;31.27;;;14.10;;
18082;SDS011;9168;51.194;6.840;2023-03-20T04:44:56;29.08;;;14.80;;
18082;SDS011;9168;51.194;6.840;2023-03-20T04:47:23;25.63;;;14.02;;
18082;SDS011;9168;51.194;6.840;2023-03-20T04:49:50;27.88;;;14.10;;
18082;SDS011;9168;51.194;6.840;2023-03-20T04:52:17;32.67;;;16.20;;
18082;SDS011;9168;51.194;6.840;2023-03-20T04:54:44;29.05;;;15.25;;
18082;SDS011;9168;51.194;6.840;2023-03-20T04:57:11;28.35;;;14.93;;
18082;SDS011;9168;51.194;6.840;2023-03-20T04:59:38;26.17;;;13.85;;
18082;SDS011;9168;51.194;6.840;2023-03-20T05:02:06;28.33;;;14.73;;
18082;SDS011;9168;51.194;6.840;2023-03-20T05:04:33;28.50;;;13.85;;
18082;SDS011;9168;51.194;6.840;2023-03-20T05:06:59;30.15;;;13.98;;
18082;SDS011;9168;51.194;6.840;2023-03-20T05:09:26;22.73;;;13.18;;
18082;SDS011;9168;51.194;6.840;2023-03-20T05:11:53;24.40;;;12.32;;
18082;SDS011;9168;51.194;6.840;2023-03-20T05:14:20;24.15;;;12.32;;
18082;SDS011;9168;51.194;6.840;2023-03-20T05:16:47;28.80;;;12.20;;
18082;SDS011;9168;51.194;6.840;2023-03-20T05:19:16;22.17;;;12.52;;
18082;SDS011;9168;51.194;6.840;2023-03-20T05:21:42;23.75;;;12.70;;
18082;SDS011;9168;51.194;6.840;2023-03-20T05:24:09;24.10;;;12.73;;
18082;SDS011;9168;51.194;6.840;2023-03-20T05:26:36;23.50;;;12.32;;
18082;SDS011;9168;51.194;6.840;2023-03-20T05:29:03;23.45;;;12.65;;
18082;SDS011;9168;51.194;6.840;2023-03-20T05:31:30;27.77;;;13.65;;
18082;SDS011;9168;51.194;6.840;2023-03-20T05:33:57;29.60;;;14.80;;
18082;SDS011;9168;51.194;6.840;2023-03-20T05:36:25;23.90;;;13.55;;
18082;SDS011;9168;51.194;6.840;2023-03-20T05:38:52;30.23;;;14.07;;
18082;SDS011;9168;51.194;6.840;2023-03-20T05:41:19;28.95;;;14.05;;
18082;SDS011;9168;51.194;6.840;2023-03-20T05:43:45;40.88;;;14.57;;
18082;SDS011;9168;51.194;6.840;2023-03-20T05:46:12;32.15;;;14.85;;
18082;SDS011;9168;51.194;6.840;2023-03-20T05:48:39;33.83;;;15.35;;
18082;SDS011;9168;51.194;6.840;2023-03-20T05:51:06;33.45;;;16.48;;
18082;SDS011;9168;51.194;6.840;2023-03-20T05:53:34;30.83;;;15.82;;
18082;SDS011;9168;51.194;6.840;2023-03-20T05:56:01;30.38;;;15.05;;
18082;SDS011;9168;51.194;6.840;2023-03-20T05:58:28;30.05;;;15.68;;
18082;SDS011;9168;51.194;6.840;2023-03-20T06:00:55;34.72;;;16.77;;
18082;SDS011;9168;51.194;6.840;2023-03-20T06:03:22;34.42;;;16.15;;
18082;SDS011;9168;51.194;6.840;2023-03-20T06:05:49;29.08;;;16.27;;
18082;SDS011;9168;51.194;6.840;2023-03-20T06:08:16;35.13;;;16.48;;
18082;SDS011;9168;51.194;6.840;2023-03-20T06:10:44;31.15;;;15.40;;
18082;SDS011;9168;51.194;6.840;2023-03-20T06:13:11;34.70;;;15.73;;
18082;SDS011;9168;51.194;6.840;2023-03-20T06:15:38;31.88;;;14.88;;
18082;SDS011;9168;51.194;6.840;2023-03-20T06:18:05;30.25;;;15.73;;
18082;SDS011;9168;51.194;6.840;2023-03-20T06:20:32;33.78;;;15.77;;
18082;SDS011;9168;51.194;6.840;2023-03-20T06:22:59;33.65;;;15.20;;
18082;SDS011;9168;51.194;6.840;2023-03-20T06:25:26;26.83;;;14.30;;
18082;SDS011;9168;51.194;6.840;2023-03-20T06:27:54;31.42;;;15.35;;
18082;SDS011;9168;51.194;6.840;2023-03-20T06:30:21;33.08;;;16.17;;
18082;SDS011;9168;51.194;6.840;2023-03-20T06:32:48;33.72;;;15.38;;
18082;SDS011;9168;51.194;6.840;2023-03-20T06:35:15;30.08;;;14.95;;
18082;SDS011;9168;51.194;6.840;2023-03-20T06:37:43;33.65;;;14.23;;
18082;SDS011;9168;51.194;6.840;2023-03-20T06:40:10;26.38;;;13.70;;
18082;SDS011;9168;51.194;6.840;2023-03-20T06:42:37;27.23;;;14.93;;
18082;SDS011;9168;51.194;6.840;2023-03-20T06:45:06;28.33;;;14.75;;
18082;SDS011;9168;51.194;6.840;2023-03-20T06:47:33;29.35;;;13.90;;
18082;SDS011;9168;51.194;6.840;2023-03-20T06:50:00;24.30;;;12.43;;
18082;SDS011;9168;51.194;6.840;2023-03-20T06:52:27;26.60;;;13.00;;
18082;SDS011;9168;51.194;6.840;2023-03-20T06:54:54;23.45;;;11.65;;
18082;SDS011;9168;51.194;6.840;2023-03-20T06:57:22;30.13;;;12.00;;
18082;SDS011;9168;51.194;6.840;2023-03-20T06:59:49;24.88;;;11.30;;
18082;SDS011;9168;51.194;6.840;2023-03-20T07:02:17;33.72;;;12.20;;
18082;SDS011;9168;51.194;6.840;2023-03-20T07:04:44;24.90;;;11.85;;
18082;SDS011;9168;51.194;6.840;2023-03-20T07:07:11;25.30;;;13.43;;
18082;SDS011;9168;51.194;6.840;2023-03-20T07:09:38;24.55;;;13.02;;
18082;SDS011;9168;51.194;6.840;2023-03-20T07:12:08;29.27;;;14.45;;
18082;SDS011;9168;51.194;6.840;2023-03-20T07:14:37;30.52;;;14.38;;
18082;SDS011;9168;51.194;6.840;2023-03-20T07:17:04;25.65;;;13.85;;
18082;SDS011;9168;51.194;6.840;2023-03-20T07:19:32;34.38;;;16.13;;
18082;SDS011;9168;51.194;6.840;2023-03-20T07:22:00;28.48;;;14.73;;
18082;SDS011;9168;51.194;6.840;2023-03-20T07:24:29;29.55;;;14.27;;
18082;SDS011;9168;51.194;6.840;2023-03-20T07:26:56;35.55;;;15.20;;
18082;SDS011;9168;51.194;6.840;2023-03-20T07:29:23;34.58;;;15.43;;
18082;SDS011;9168;51.194;6.840;2023-03-20T07:31:51;31.00;;;14.52;;
18082;SDS011;9168;51.194;6.840;2023-03-20T07:34:18;25.02;;;13.32;;
18082;SDS011;9168;51.194;6.840;2023-03-20T07:36:46;26.35;;;12.70;;
18082;SDS011;9168;51.194;6.840;2023-03-20T07:39:13;23.42;;;11.23;;
18082;SDS011;9168;51.194;6.840;2023-03-20T07:41:41;26.92;;;11.13;;
18082;SDS011;9168;51.194;6.840;2023-03-20T07:44:08;22.88;;;10.32;;
18082;SDS011;9168;51.194;6.840;2023-03-20T07:46:35;24.58;;;10.02;;
18082;SDS011;9168;51.194;6.840;2023-03-20T07:49:02;24.80;;;11.02;;
18082;SDS011;9168;51.194;6.840;2023-03-20T07:51:29;21.65;;;10.00;;
18082;SDS011;9168;51.194;6.840;2023-03-20T07:53:58;23.33;;;10.25;;
18082;SDS011;9168;51.194;6.840;2023-03-20T07:56:24;25.73;;;9.60;;
18082;SDS011;9168;51.194;6.840;2023-03-20T07:58:51;23.25;;;10.95;;
18082;SDS011;9168;51.194;6.840;2023-03-20T08:01:18;19.92;;;9.18;;
18082;SDS011;9168;51.194;6.840;2023-03-20T08:03:45;24.85;;;10.27;;
18082;SDS011;9168;51.194;6.840;2023-03-20T08:06:12;22.23;;;9.07;;
18082;SDS011;9168;51.194;6.840;2023-03-20T08:08:39;22.25;;;9.88;;
18082;SDS011;9168;51.194;6.840;2023-03-20T08:11:07;23.88;;;9.40;;
18082;SDS011;9168;51.194;6.840;2023-03-20T08:13:34;22.77;;;9.43;;
18082;SDS011;9168;51.194;6.840;2023-03-20T08:16:01;21.55;;;8.88;;
18082;SDS011;9168;51.194;6.840;2023-03-20T08:18:28;20.63;;;8.82;;
18082;SDS011;9168;51.194;6.840;2023-03-20T08:20:55;21.55;;;9.23;;
18082;SDS011;9168;51.194;6.840;2023-03-20T08:23:22;17.83;;;8.50;;
18082;SDS011;9168;51.194;6.840;2023-03-20T08:25:49;18.52;;;7.80;;
18082;SDS011;9168;51.194;6.840;2023-03-20T08:28:19;20.30;;;9.77;;
18082;SDS011;9168;51.194;6.840;2023-03-20T08:30:47;17.88;;;9.00;;
18082;SDS011;9168;51.194;6.840;2023-03-20T08:33:14;21.23;;;8.38;;
18082;SDS011;9168;51.194;6.840;2023-03-20T08:35:43;19.92;;;8.63;;
18082;SDS011;9168;51.194;6.840;2023-03-20T08:38:19;23.65;;;9.90;;
18082;SDS011;9168;51.194;6.840;2023-03-20T08:40:46;21.75;;;8.40;;
18082;SDS011;9168;51.194;6.840;2023-03-20T08:43:13;24.73;;;8.10;;
18082;SDS011;9168;51.194;6.840;2023-03-20T08:45:41;24.08;;;7.97;;
18082;SDS011;9168;51.194;6.840;2023-03-20T08:48:09;21.60;;;8.13;;
18082;SDS011;9168;51.194;6.840;2023-03-20T08:50:36;17.20;;;7.63;;
18082;SDS011;9168;51.194;6.840;2023-03-20T08:53:03;22.25;;;8.13;;
18082;SDS011;9168;51.194;6.840;2023-03-20T08:55:30;18.05;;;7.97;;
18082;SDS011;9168;51.194;6.840;2023-03-20T08:57:57;18.70;;;6.50;;
18082;SDS011;9168;51.194;6.840;2023-03-20T09:00:25;20.83;;;6.60;;
18082;SDS011;9168;51.194;6.840;2023-03-20T09:02:53;23.63;;;6.97;;
18082;SDS011;9168;51.194;6.840;2023-03-20T09:05:20;15.63;;;6.15;;
18082;SDS011;9168;51.194;6.840;2023-03-20T09:07:47;26.92;;;7.32;;
18082;SDS011;9168;51.194;6.840;2023-03-20T09:10:15;18.20;;;6.05;;
18082;SDS011;9168;51.194;6.840;2023-03-20T09:12:42;22.02;;;6.32;;
18082;SDS011;9168;51.194;6.840;2023-03-20T09:15:09;16.67;;;6.40;;
18082;SDS011;9168;51.194;6.840;2023-03-20T09:17:37;21.17;;;6.57;;
18082;SDS011;9168;51.194;6.840;2023-03-20T09:20:05;22.17;;;6.32;;
18082;SDS011;9168;51.194;6.840;2023-03-20T09:22:33;19.85;;;6.65;;
18082;SDS011;9168;51.194;6.840;2023-03-20T09:25:00;17.10;;;5.63;;
18082;SDS011;9168;51.194;6.840;2023-03-20T09:27:27;12.02;;;5.82;;
18082;SDS011;9168;51.194;6.840;2023-03-20T09:29:54;14.35;;;5.95;;
18082;SDS011;9168;51.194;6.840;2023-03-20T09:32:20;20.27;;;5.90;;
18082;SDS011;9168;51.194;6.840;2023-03-20T09:34:47;16.60;;;6.00;;
18082;SDS011;9168;51.194;6.840;2023-03-20T09:37:15;14.43;;;5.55;;
18082;SDS011;9168;51.194;6.840;2023-03-20T09:39:42;15.90;;;5.32;;
18082;SDS011;9168;51.194;6.840;2023-03-20T09:42:13;13.48;;;4.47;;
18082;SDS011;9168;51.194;6.840;2023-03-20T09:44:51;12.18;;;4.22;;
18082;SDS011;9168;51.194;6.840;2023-03-20T09:47:29;24.50;;;5.53;;
18082;SDS011;9168;51.194;6.840;2023-03-20T09:50:05;15.65;;;4.43;;
18082;SDS011;9168;51.194;6.840;2023-03-20T09:52:51;16.10;;;4.43;;
18082;SDS011;9168;51.194;6.840;2023-03-20T09:55:22;15.80;;;4.72;;
18082;SDS011;9168;51.194;6.840;2023-03-20T09:57:55;12.35;;;3.25;;
18082;SDS011;9168;51.194;6.840;2023-03-20T10:00:25;15.73;;;4.03;;
18082;SDS011;9168;51.194;6.840;2023-03-20T10:02:55;15.48;;;3.00;;
18082;SDS011;9168;51.194;6.840;2023-03-20T10:05:26;12.75;;;2.95;;
18082;SDS011;9168;51.194;6.840;2023-03-20T10:07:57;15.13;;;3.45;;
18082;SDS011;9168;51.194;6.840;2023-03-20T10:10:27;10.80;;;3.35;;
18082;SDS011;9168;51.194;6.840;2023-03-20T10:13:03;13.82;;;3.50;;
18082;SDS011;9168;51.194;6.840;2023-03-20T10:15:38;12.25;;;3.45;;
18082;SDS011;9168;51.194;6.840;2023-03-20T10:18:14;9.57;;;3.17;;
18082;SDS011;9168;51.194;6.840;2023-03-20T10:20:47;15.38;;;3.17;;
18082;SDS011;9168;51.194;6.840;2023-03-20T10:23:23;13.23;;;3.25;;
18082;SDS011;9168;51.194;6.840;2023-03-20T10:25:58;9.20;;;2.88;;
18082;SDS011;9168;51.194;6.840;2023-03-20T10:28:30;13.70;;;3.20;;
18082;SDS011;9168;51.194;6.840;2023-03-20T10:31:05;18.00;;;4.00;;
18082;SDS011;9168;51.194;6.840;2023-03-20T10:33:47;8.63;;;2.60;;
18082;SDS011;9168;51.194;6.840;2023-03-20T10:36:30;13.10;;;2.80;;
18082;SDS011;9168;51.194;6.840;2023-03-20T10:39:08;12.98;;;2.97;;
18082;SDS011;9168;51.194;6.840;2023-03-20T10:41:39;10.80;;;2.83;;
18082;SDS011;9168;51.194;6.840;2023-03-20T10:44:13;11.30;;;2.75;;
18082;SDS011;9168;51.194;6.840;2023-03-20T10:46:44;11.93;;;3.25;;
18082;SDS011;9168;51.194;6.840;2023-03-20T10:49:16;12.35;;;3.22;;
18082;SDS011;9168;51.194;6.840;2023-03-20T10:51:46;16.17;;;3.42;;
18082;SDS011;9168;51.194;6.840;2023-03-20T10:54:21;14.38;;;3.78;;
18082;SDS011;9168;51.194;6.840;2023-03-20T10:56:50;15.93;;;4.15;;
18082;SDS011;9168;51.194;6.840;2023-03-20T10:59:21;12.52;;;3.70;;
18082;SDS011;9168;51.194;6.840;2023-03-20T11:01:50;14.27;;;3.60;;
18082;SDS011;9168;51.194;6.840;2023-03-20T11:04:17;14.38;;;4.03;;
18082;SDS011;9168;51.194;6.840;2023-03-20T11:06:45;21.70;;;5.13;;
18082;SDS011;9168;51.194;6.840;2023-03-20T11:09:18;14.32;;;4.50;;
18082;SDS011;9168;51.194;6.840;2023-03-20T11:11:50;14.25;;;4.35;;
18082;SDS011;9168;51.194;6.840;2023-03-20T11:14:21;15.98;;;4.30;;
18082;SDS011;9168;51.194;6.840;2023-03-20T11:16:50;13.30;;;4.15;;
18082;SDS011;9168;51.194;6.840;2023-03-20T11:19:18;14.88;;;3.88;;
18082;SDS011;9168;51.194;6.840;2023-03-20T11:21:47;21.20;;;4.80;;
18082;SDS011;9168;51.194;6.840;2023-03-20T11:24:21;13.95;;;4.28;;
18082;SDS011;9168;51.194;6.840;2023-03-20T11:26:51;17.75;;;4.43;;
18082;SDS011;9168;51.194;6.840;2023-03-20T11:29:21;13.32;;;3.97;;
18082;SDS011;9168;51.194;6.840;2023-03-20T11:31:51;13.75;;;4.13;;
18082;SDS011;9168;51.194;6.840;2023-03-20T11:34:22;21.42;;;4.32;;
18082;SDS011;9168;51.194;6.840;2023-03-20T11:36:55;11.55;;;3.67;;
18082;SDS011;9168;51.194;6.840;2023-03-20T11:39:25;12.13;;;4.00;;
18082;SDS011;9168;51.194;6.840;2023-03-20T11:41:54;18.60;;;4.50;;
18082;SDS011;9168;51.194;6.840;2023-03-20T11:44:23;15.52;;;3.90;;
18082;SDS011;9168;51.194;6.840;2023-03-20T11:46:55;10.73;;;3.35;;
18082;SDS011;9168;51.194;6.840;2023-03-20T11:49:24;16.65;;;4.38;;
18082;SDS011;9168;51.194;6.840;2023-03-20T11:51:54;9.85;;;3.10;;
18082;SDS011;9168;51.194;6.840;2023-03-20T11:54:26;18.77;;;2.65;;
18082;SDS011;9168;51.194;6.840;2023-03-20T11:56:54;11.48;;;3.00;;
18082;SDS011;9168;51.194;6.840;2023-03-20T11:59:22;14.68;;;2.90;;
18082;SDS011;9168;51.194;6.840;2023-03-20T12:01:55;10.40;;;2.42;;
18082;SDS011;9168;51.194;6.840;2023-03-20T12:04:25;10.43;;;2.63;;
18082;SDS011;9168;51.194;6.840;2023-03-20T12:06:54;14.82;;;3.53;;
18082;SDS011;9168;51.194;6.840;2023-03-20T12:09:32;17.80;;;3.42;;
18082;SDS011;9168;51.194;6.840;2023-03-20T12:12:04;16.60;;;4.05;;
18082;SDS011;9168;51.194;6.840;2023-03-20T12:14:40;15.80;;;3.63;;
18082;SDS011;9168;51.194;6.840;2023-03-20T12:17:24;11.82;;;3.10;;
18082;SDS011;9168;51.194;6.840;2023-03-20T12:20:14;17.73;;;4.30;;
18082;SDS011;9168;51.194;6.840;2023-03-20T12:22:51;16.50;;;3.92;;
18082;SDS011;9168;51.194;6.840;2023-03-20T12:25:23;12.85;;;3.75;;
18082;SDS011;9168;51.194;6.840;2023-03-20T12:27:54;7.22;;;2.55;;
18082;SDS011;9168;51.194;6.840;2023-03-20T12:30:31;9.57;;;2.90;;
18082;SDS011;9168;51.194;6.840;2023-03-20T12:33:09;11.15;;;2.72;;
18082;SDS011;9168;51.194;6.840;2023-03-20T12:35:41;11.23;;;2.83;;
18082;SDS011;9168;51.194;6.840;2023-03-20T12:38:15;9.82;;;3.00;;
18082;SDS011;9168;51.194;6.840;2023-03-20T12:40:50;9.02;;;2.40;;
18082;SDS011;9168;51.194;6.840;2023-03-20T12:43:21;15.13;;;2.75;;
18082;SDS011;9168;51.194;6.840;2023-03-20T12:45:51;11.18;;;2.90;;
18082;SDS011;9168;51.194;6.840;2023-03-20T12:48:33;14.55;;;3.03;;
18082;SDS011;9168;51.194;6.840;2023-03-20T12:51:09;11.07;;;2.42;;
18082;SDS011;9168;51.194;6.840;2023-03-20T12:53:45;11.30;;;3.10;;
18082;SDS011;9168;51.194;6.840;2023-03-20T12:56:25;10.80;;;3.00;;
18082;SDS011;9168;51.194;6.840;2023-03-20T12:58:58;9.25;;;2.80;;
18082;SDS011;9168;51.194;6.840;2023-03-20T13:01:31;11.02;;;3.10;;
18082;SDS011;9168;51.194;6.840;2023-03-20T13:04:09;13.23;;;3.17;;
18082;SDS011;9168;51.194;6.840;2023-03-20T13:07:02;9.65;;;2.65;;
18082;SDS011;9168;51.194;6.840;2023-03-20T13:09:41;10.15;;;3.13;;
18082;SDS011;9168;51.194;6.840;2023-03-20T13:12:25;8.63;;;3.10;;
18082;SDS011;9168;51.194;6.840;2023-03-20T13:15:02;11.23;;;2.90;;
18082;SDS011;9168;51.194;6.840;2023-03-20T13:17:41;15.23;;;3.20;;
18082;SDS011;9168;51.194;6.840;2023-03-20T13:20:23;15.48;;;3.97;;
18082;SDS011;9168;51.194;6.840;2023-03-20T13:22:57;17.50;;;3.80;;
18082;SDS011;9168;51.194;6.840;2023-03-20T13:25:39;9.65;;;2.85;;
18082;SDS011;9168;51.194;6.840;2023-03-20T13:28:21;11.45;;;3.13;;
18082;SDS011;9168;51.194;6.840;2023-03-20T13:30:55;12.63;;;3.20;;
18082;SDS011;9168;51.194;6.840;2023-03-20T13:33:33;14.02;;;3.88;;
18082;SDS011;9168;51.194;6.840;2023-03-20T13:36:10;10.93;;;3.83;;
18082;SDS011;9168;51.194;6.840;2023-03-20T13:38:49;15.98;;;3.08;;
18082;SDS011;9168;51.194;6.840;2023-03-20T13:41:23;12.45;;;3.53;;
18082;SDS011;9168;51.194;6.840;2023-03-20T13:43:53;16.65;;;4.03;;
18082;SDS011;9168;51.194;6.840;2023-03-20T13:46:25;9.82;;;3.30;;
18082;SDS011;9168;51.194;6.840;2023-03-20T13:49:00;12.75;;;3.58;;
18082;SDS011;9168;51.194;6.840;2023-03-20T13:51:31;9.45;;;2.95;;
18082;SDS011;9168;51.194;6.840;2023-03-20T13:54:06;16.35;;;3.40;;
18082;SDS011;9168;51.194;6.840;2023-03-20T13:56:48;14.85;;;3.70;;
18082;SDS011;9168;51.194;6.840;2023-03-20T14:02:13;14.35;;;3.00;;
18082;SDS011;9168;51.194;6.840;2023-03-20T14:04:49;14.20;;;3.20;;
18082;SDS011;9168;51.194;6.840;2023-03-20T14:07:25;12.80;;;2.90;;
18082;SDS011;9168;51.194;6.840;2023-03-20T14:09:56;12.57;;;3.00;;
18082;SDS011;9168;51.194;6.840;2023-03-20T14:12:43;13.02;;;3.20;;
18082;SDS011;9168;51.194;6.840;2023-03-20T14:15:15;14.20;;;2.72;;
18082;SDS011;9168;51.194;6.840;2023-03-20T14:17:45;19.92;;;3.03;;
18082;SDS011;9168;51.194;6.840;2023-03-20T14:20:18;19.30;;;3.53;;
18082;SDS011;9168;51.194;6.840;2023-03-20T14:22:52;15.80;;;3.25;;
18082;SDS011;9168;51.194;6.840;2023-03-20T14:25:22;13.00;;;2.90;;
18082;SDS011;9168;51.194;6.840;2023-03-20T14:27:53;17.88;;;4.35;;
18082;SDS011;9168;51.194;6.840;2023-03-20T14:30:39;13.68;;;3.63;;
18082;SDS011;9168;51.194;6.840;2023-03-20T14:33:22;17.40;;;3.50;;
18082;SDS011;9168;51.194;6.840;2023-03-20T14:38:38;19.27;;;4.25;;
18082;SDS011;9168;51.194;6.840;2023-03-20T14:41:15;14.65;;;3.40;;
18082;SDS011;9168;51.194;6.840;2023-03-20T14:43:51;18.60;;;4.32;;
18082;SDS011;9168;51.194;6.840;2023-03-20T14:46:26;16.25;;;4.18;;
18082;SDS011;9168;51.194;6.840;2023-03-20T14:49:01;22.80;;;3.92;;
18082;SDS011;9168;51.194;6.840;2023-03-20T14:51:43;10.30;;;3.25;;
18082;SDS011;9168;51.194;6.840;2023-03-20T14:54:23;17.02;;;3.78;;
18082;SDS011;9168;51.194;6.840;2023-03-20T14:56:54;16.60;;;3.65;;
18082;SDS011;9168;51.194;6.840;2023-03-20T14:59:33;15.57;;;3.70;;
18082;SDS011;9168;51.194;6.840;2023-03-20T15:02:01;17.33;;;3.67;;
18082;SDS011;9168;51.194;6.840;2023-03-20T15:04:30;9.85;;;3.30;;
18082;SDS011;9168;51.194;6.840;2023-03-20T15:07:01;19.17;;;3.78;;
18082;SDS011;9168;51.194;6.840;2023-03-20T15:09:32;23.48;;;3.70;;
18082;SDS011;9168;51.194;6.840;2023-03-20T15:12:02;18.83;;;3.50;;
18082;SDS011;9168;51.194;6.840;2023-03-20T15:14:31;20.02;;;4.18;;